sensor_id;sensor_type;location;lat;lon;timestamp;temperature;humidity
38866;DHT22;62686;48.984;8.394;2022-09-09T00:01:28;15.70;1.00
38866;DHT22;62686;48.984;8.394;2022-09-09T00:04:09;15.80;1.00
38866;DHT22;62686;48.984;8.394;2022-09-09T00:06:53;15.80;1.00
38866;DHT22;62686;48.984;8.394;2022-09-09T00:09:31;15.80;1.00
38866;DHT22;62686;48.984;8.394;2022-09-09T00:12:04;15.80;1.00
38866;DHT22;62686;48.984;8.394;2022-09-09T00:14:41;15.80;1.00
38866;DHT22;62686;48.984;8.394;2022-09-09T00:17:14;15.80;1.00
38866;DHT22;62686;48.984;8.394;2022-09-09T00:19:56;15.80;1.00
38866;DHT22;62686;48.984;8.394;2022-09-09T00:22:30;15.80;1.00
38866;DHT22;62686;48.984;8.394;2022-09-09T00:25:08;15.80;1.00
38866;DHT22;62686;48.984;8.394;2022-09-09T00:27:43;15.70;1.00
38866;DHT22;62686;48.984;8.394;2022-09-09T00:30:17;15.70;1.00
38866;DHT22;62686;48.984;8.394;2022-09-09T00:32:52;15.60;1.00
38866;DHT22;62686;48.984;8.394;2022-09-09T00:35:29;15.50;1.00
38866;DHT22;62686;48.984;8.394;2022-09-09T00:38:03;15.50;1.00
38866;DHT22;62686;48.984;8.394;2022-09-09T00:40:38;15.40;1.00
38866;DHT22;62686;48.984;8.394;2022-09-09T00:43:28;15.30;1.00
38866;DHT22;62686;48.984;8.394;2022-09-09T00:49:14;15.10;1.00
38866;DHT22;62686;48.984;8.394;2022-09-09T00:51:56;15.10;1.00
38866;DHT22;62686;48.984;8.394;2022-09-09T00:54:36;15.20;1.00
38866;DHT22;62686;48.984;8.394;2022-09-09T00:57:18;15.10;1.00
38866;DHT22;62686;48.984;8.394;2022-09-09T00:59:52;15.20;1.00
38866;DHT22;62686;48.984;8.394;2022-09-09T01:02:31;15.20;1.00
38866;DHT22;62686;48.984;8.394;2022-09-09T01:05:10;15.20;1.00
38866;DHT22;62686;48.984;8.394;2022-09-09T01:07:48;15.20;1.00
38866;DHT22;62686;48.984;8.394;2022-09-09T01:10:29;15.30;1.00
38866;DHT22;62686;48.984;8.394;2022-09-09T01:13:04;15.30;1.00
38866;DHT22;62686;48.984;8.394;2022-09-09T01:15:38;15.40;1.00
38866;DHT22;62686;48.984;8.394;2022-09-09T01:18:13;15.40;1.00
38866;DHT22;62686;48.984;8.394;2022-09-09T01:20:52;15.50;1.00
38866;DHT22;62686;48.984;8.394;2022-09-09T01:23:48;15.70;1.00
38866;DHT22;62686;48.984;8.394;2022-09-09T01:26:26;15.80;1.00
38866;DHT22;62686;48.984;8.394;2022-09-09T01:28:58;16.00;1.00
38866;DHT22;62686;48.984;8.394;2022-09-09T01:31:30;16.00;1.00
38866;DHT22;62686;48.984;8.394;2022-09-09T01:33:59;16.00;1.00
38866;DHT22;62686;48.984;8.394;2022-09-09T01:36:32;16.00;1.00
38866;DHT22;62686;48.984;8.394;2022-09-09T01:39:03;15.80;1.00
38866;DHT22;62686;48.984;8.394;2022-09-09T01:41:34;15.60;1.00
38866;DHT22;62686;48.984;8.394;2022-09-09T01:44:03;15.50;1.00
38866;DHT22;62686;48.984;8.394;2022-09-09T01:46:33;15.40;1.00
38866;DHT22;62686;48.984;8.394;2022-09-09T01:49:05;15.40;1.00
38866;DHT22;62686;48.984;8.394;2022-09-09T01:51:35;15.30;1.00
38866;DHT22;62686;48.984;8.394;2022-09-09T01:54:07;15.30;1.00
38866;DHT22;62686;48.984;8.394;2022-09-09T01:56:47;15.30;1.00
38866;DHT22;62686;48.984;8.394;2022-09-09T01:59:36;15.20;1.00
38866;DHT22;62686;48.984;8.394;2022-09-09T02:02:23;15.20;1.00
38866;DHT22;62686;48.984;8.394;2022-09-09T02:05:11;15.00;1.00
38866;DHT22;62686;48.984;8.394;2022-09-09T02:07:48;15.00;1.00
38866;DHT22;62686;48.984;8.394;2022-09-09T02:10:21;14.90;1.00
38866;DHT22;62686;48.984;8.394;2022-09-09T02:12:55;14.90;1.00
38866;DHT22;62686;48.984;8.394;2022-09-09T02:15:35;14.90;1.00
38866;DHT22;62686;48.984;8.394;2022-09-09T02:18:08;14.80;1.00
38866;DHT22;62686;48.984;8.394;2022-09-09T02:20:38;14.80;1.00
38866;DHT22;62686;48.984;8.394;2022-09-09T02:23:09;14.80;1.00
38866;DHT22;62686;48.984;8.394;2022-09-09T02:25:40;14.80;1.00
38866;DHT22;62686;48.984;8.394;2022-09-09T02:28:12;14.70;1.00
38866;DHT22;62686;48.984;8.394;2022-09-09T02:30:44;14.70;1.00
38866;DHT22;62686;48.984;8.394;2022-09-09T02:33:14;14.60;1.00
38866;DHT22;62686;48.984;8.394;2022-09-09T02:35:43;14.60;1.00
38866;DHT22;62686;48.984;8.394;2022-09-09T02:38:15;14.50;1.00
38866;DHT22;62686;48.984;8.394;2022-09-09T02:40:44;14.50;1.00
38866;DHT22;62686;48.984;8.394;2022-09-09T02:43:15;14.50;1.00
38866;DHT22;62686;48.984;8.394;2022-09-09T02:45:53;14.40;1.00
38866;DHT22;62686;48.984;8.394;2022-09-09T02:48:29;14.30;1.00
38866;DHT22;62686;48.984;8.394;2022-09-09T02:51:08;14.20;1.00
38866;DHT22;62686;48.984;8.394;2022-09-09T02:53:43;14.10;1.00
38866;DHT22;62686;48.984;8.394;2022-09-09T02:56:21;14.00;1.00
38866;DHT22;62686;48.984;8.394;2022-09-09T02:58:55;14.00;1.00
38866;DHT22;62686;48.984;8.394;2022-09-09T03:01:23;14.00;2.00
38866;DHT22;62686;48.984;8.394;2022-09-09T03:03:53;13.90;3.50
38866;DHT22;62686;48.984;8.394;2022-09-09T03:06:24;13.90;6.70
38866;DHT22;62686;48.984;8.394;2022-09-09T03:08:57;14.00;9.90
38866;DHT22;62686;48.984;8.394;2022-09-09T03:11:27;14.10;11.80
38866;DHT22;62686;48.984;8.394;2022-09-09T03:13:57;14.20;13.00
38866;DHT22;62686;48.984;8.394;2022-09-09T03:16:25;14.20;13.80
38866;DHT22;62686;48.984;8.394;2022-09-09T03:18:54;14.20;14.00
38866;DHT22;62686;48.984;8.394;2022-09-09T03:21:24;14.20;14.20
38866;DHT22;62686;48.984;8.394;2022-09-09T03:23:53;14.20;14.50
38866;DHT22;62686;48.984;8.394;2022-09-09T03:26:23;14.20;14.60
38866;DHT22;62686;48.984;8.394;2022-09-09T03:28:54;14.00;14.50
38866;DHT22;62686;48.984;8.394;2022-09-09T03:31:30;14.00;14.20
38866;DHT22;62686;48.984;8.394;2022-09-09T03:33:59;13.90;13.30
38866;DHT22;62686;48.984;8.394;2022-09-09T03:36:28;13.80;12.80
38866;DHT22;62686;48.984;8.394;2022-09-09T03:39:00;13.70;12.00
38866;DHT22;62686;48.984;8.394;2022-09-09T03:41:30;13.70;11.90
38866;DHT22;62686;48.984;8.394;2022-09-09T03:44:03;13.60;12.00
38866;DHT22;62686;48.984;8.394;2022-09-09T03:46:36;13.60;12.80
38866;DHT22;62686;48.984;8.394;2022-09-09T03:49:11;13.50;12.40
38866;DHT22;62686;48.984;8.394;2022-09-09T03:51:41;13.40;11.90
38866;DHT22;62686;48.984;8.394;2022-09-09T03:54:12;13.30;11.60
38866;DHT22;62686;48.984;8.394;2022-09-09T03:56:44;13.20;11.70
38866;DHT22;62686;48.984;8.394;2022-09-09T03:59:12;13.20;12.00
38866;DHT22;62686;48.984;8.394;2022-09-09T04:01:42;13.20;13.10
38866;DHT22;62686;48.984;8.394;2022-09-09T04:04:16;13.30;13.90
38866;DHT22;62686;48.984;8.394;2022-09-09T04:06:46;13.30;14.40
38866;DHT22;62686;48.984;8.394;2022-09-09T04:09:17;13.40;14.40
38866;DHT22;62686;48.984;8.394;2022-09-09T04:11:49;13.50;14.40
38866;DHT22;62686;48.984;8.394;2022-09-09T04:14:17;13.60;14.40
38866;DHT22;62686;48.984;8.394;2022-09-09T04:16:47;13.70;14.60
38866;DHT22;62686;48.984;8.394;2022-09-09T04:19:16;13.80;14.80
38866;DHT22;62686;48.984;8.394;2022-09-09T04:21:47;13.90;15.00
38866;DHT22;62686;48.984;8.394;2022-09-09T04:24:18;14.00;15.10
38866;DHT22;62686;48.984;8.394;2022-09-09T04:26:48;14.00;15.60
38866;DHT22;62686;48.984;8.394;2022-09-09T04:29:18;14.10;15.80
38866;DHT22;62686;48.984;8.394;2022-09-09T04:31:48;14.20;16.50
38866;DHT22;62686;48.984;8.394;2022-09-09T04:34:18;14.20;16.80
38866;DHT22;62686;48.984;8.394;2022-09-09T04:36:46;14.20;17.00
38866;DHT22;62686;48.984;8.394;2022-09-09T04:39:15;14.20;17.30
38866;DHT22;62686;48.984;8.394;2022-09-09T04:41:43;14.20;17.60
38866;DHT22;62686;48.984;8.394;2022-09-09T04:44:11;14.20;18.20
38866;DHT22;62686;48.984;8.394;2022-09-09T04:46:40;14.20;17.70
38866;DHT22;62686;48.984;8.394;2022-09-09T04:49:09;14.30;18.00
38866;DHT22;62686;48.984;8.394;2022-09-09T04:51:40;14.30;18.00
38866;DHT22;62686;48.984;8.394;2022-09-09T04:54:09;14.40;18.20
38866;DHT22;62686;48.984;8.394;2022-09-09T04:56:38;14.40;19.30
38866;DHT22;62686;48.984;8.394;2022-09-09T04:59:06;14.50;19.60
38866;DHT22;62686;48.984;8.394;2022-09-09T05:01:35;14.60;19.80
38866;DHT22;62686;48.984;8.394;2022-09-09T05:04:03;14.50;20.10
38866;DHT22;62686;48.984;8.394;2022-09-09T05:06:33;14.60;20.60
38866;DHT22;62686;48.984;8.394;2022-09-09T05:09:03;14.60;21.10
38866;DHT22;62686;48.984;8.394;2022-09-09T05:11:32;14.50;21.30
38866;DHT22;62686;48.984;8.394;2022-09-09T05:14:03;14.40;21.10
38866;DHT22;62686;48.984;8.394;2022-09-09T05:16:31;14.50;20.80
38866;DHT22;62686;48.984;8.394;2022-09-09T05:19:00;14.50;20.80
38866;DHT22;62686;48.984;8.394;2022-09-09T05:21:30;14.60;20.80
38866;DHT22;62686;48.984;8.394;2022-09-09T05:23:59;14.60;21.00
38866;DHT22;62686;48.984;8.394;2022-09-09T05:26:28;14.70;21.10
38866;DHT22;62686;48.984;8.394;2022-09-09T05:28:56;14.80;21.30
38866;DHT22;62686;48.984;8.394;2022-09-09T05:31:25;14.80;21.90
38866;DHT22;62686;48.984;8.394;2022-09-09T05:33:55;14.80;21.40
38866;DHT22;62686;48.984;8.394;2022-09-09T05:36:23;14.90;21.60
38866;DHT22;62686;48.984;8.394;2022-09-09T05:38:51;15.00;21.70
38866;DHT22;62686;48.984;8.394;2022-09-09T05:41:22;15.00;22.00
38866;DHT22;62686;48.984;8.394;2022-09-09T05:43:50;15.10;22.10
38866;DHT22;62686;48.984;8.394;2022-09-09T05:46:20;15.10;22.00
38866;DHT22;62686;48.984;8.394;2022-09-09T05:48:49;15.10;22.00
38866;DHT22;62686;48.984;8.394;2022-09-09T05:51:20;15.10;22.00
38866;DHT22;62686;48.984;8.394;2022-09-09T05:53:49;15.10;21.60
38866;DHT22;62686;48.984;8.394;2022-09-09T05:56:20;15.10;21.20
38866;DHT22;62686;48.984;8.394;2022-09-09T05:58:50;15.20;22.50
38866;DHT22;62686;48.984;8.394;2022-09-09T06:01:21;15.50;23.80
38866;DHT22;62686;48.984;8.394;2022-09-09T06:03:51;15.90;24.40
38866;DHT22;62686;48.984;8.394;2022-09-09T06:06:21;16.20;24.90
38866;DHT22;62686;48.984;8.394;2022-09-09T06:08:51;16.40;24.20
38866;DHT22;62686;48.984;8.394;2022-09-09T06:11:21;16.30;1.00
38866;DHT22;62686;48.984;8.394;2022-09-09T06:13:51;16.30;1.00
38866;DHT22;62686;48.984;8.394;2022-09-09T06:16:23;16.40;1.00
38866;DHT22;62686;48.984;8.394;2022-09-09T06:18:52;16.40;1.00
38866;DHT22;62686;48.984;8.394;2022-09-09T06:21:23;16.50;1.00
38866;DHT22;62686;48.984;8.394;2022-09-09T06:23:51;16.40;1.00
38866;DHT22;62686;48.984;8.394;2022-09-09T06:26:22;16.50;1.00
38866;DHT22;62686;48.984;8.394;2022-09-09T06:28:54;16.60;1.00
38866;DHT22;62686;48.984;8.394;2022-09-09T06:31:26;16.60;1.00
38866;DHT22;62686;48.984;8.394;2022-09-09T06:33:58;16.70;1.00
38866;DHT22;62686;48.984;8.394;2022-09-09T06:36:27;16.70;1.00
38866;DHT22;62686;48.984;8.394;2022-09-09T06:38:56;16.80;1.00
38866;DHT22;62686;48.984;8.394;2022-09-09T06:41:25;16.90;1.00
38866;DHT22;62686;48.984;8.394;2022-09-09T06:43:55;17.10;1.00
38866;DHT22;62686;48.984;8.394;2022-09-09T06:46:25;17.70;1.00
38866;DHT22;62686;48.984;8.394;2022-09-09T06:48:55;18.70;1.00
38866;DHT22;62686;48.984;8.394;2022-09-09T06:51:28;19.80;99.90
38866;DHT22;62686;48.984;8.394;2022-09-09T06:53:57;20.10;99.90
38866;DHT22;62686;48.984;8.394;2022-09-09T06:56:27;20.00;1.00
38866;DHT22;62686;48.984;8.394;2022-09-09T06:58:58;19.60;99.90
38866;DHT22;62686;48.984;8.394;2022-09-09T07:01:29;19.30;99.90
38866;DHT22;62686;48.984;8.394;2022-09-09T07:03:59;18.90;1.00
38866;DHT22;62686;48.984;8.394;2022-09-09T07:06:29;18.80;1.00
38866;DHT22;62686;48.984;8.394;2022-09-09T07:08:59;18.80;1.00
38866;DHT22;62686;48.984;8.394;2022-09-09T07:11:29;18.80;7.10
38866;DHT22;62686;48.984;8.394;2022-09-09T07:14:00;19.60;1.00
38866;DHT22;62686;48.984;8.394;2022-09-09T07:16:28;21.40;99.90
38866;DHT22;62686;48.984;8.394;2022-09-09T07:18:58;22.00;1.00
38866;DHT22;62686;48.984;8.394;2022-09-09T07:21:28;22.10;1.00
38866;DHT22;62686;48.984;8.394;2022-09-09T07:23:57;22.20;1.00
38866;DHT22;62686;48.984;8.394;2022-09-09T07:26:27;21.80;99.90
38866;DHT22;62686;48.984;8.394;2022-09-09T07:28:56;21.40;1.00
38866;DHT22;62686;48.984;8.394;2022-09-09T07:31:28;21.00;1.00
38866;DHT22;62686;48.984;8.394;2022-09-09T07:33:57;20.80;1.00
38866;DHT22;62686;48.984;8.394;2022-09-09T07:36:28;20.70;99.90
38866;DHT22;62686;48.984;8.394;2022-09-09T07:39:00;20.40;1.00
38866;DHT22;62686;48.984;8.394;2022-09-09T07:41:31;20.20;99.90
38866;DHT22;62686;48.984;8.394;2022-09-09T07:44:04;20.10;99.90
38866;DHT22;62686;48.984;8.394;2022-09-09T07:46:35;20.80;1.00
38866;DHT22;62686;48.984;8.394;2022-09-09T07:49:03;21.20;1.00
38866;DHT22;62686;48.984;8.394;2022-09-09T07:51:33;21.50;1.00
38866;DHT22;62686;48.984;8.394;2022-09-09T07:54:04;21.50;1.00
38866;DHT22;62686;48.984;8.394;2022-09-09T07:56:33;21.10;99.90
38866;DHT22;62686;48.984;8.394;2022-09-09T07:59:02;20.90;1.00
38866;DHT22;62686;48.984;8.394;2022-09-09T08:01:34;21.80;1.00
38866;DHT22;62686;48.984;8.394;2022-09-09T08:04:07;24.00;1.00
38866;DHT22;62686;48.984;8.394;2022-09-09T08:06:37;24.50;99.90
38866;DHT22;62686;48.984;8.394;2022-09-09T08:09:06;24.00;1.00
38866;DHT22;62686;48.984;8.394;2022-09-09T08:11:35;23.60;1.00
38866;DHT22;62686;48.984;8.394;2022-09-09T08:14:04;23.20;99.90
38866;DHT22;62686;48.984;8.394;2022-09-09T08:16:37;23.30;1.00
38866;DHT22;62686;48.984;8.394;2022-09-09T08:19:05;23.70;1.00
38866;DHT22;62686;48.984;8.394;2022-09-09T08:21:36;24.20;99.90
38866;DHT22;62686;48.984;8.394;2022-09-09T08:24:07;24.10;99.90
38866;DHT22;62686;48.984;8.394;2022-09-09T08:26:36;24.60;99.90
38866;DHT22;62686;48.984;8.394;2022-09-09T08:29:06;24.30;99.90
38866;DHT22;62686;48.984;8.394;2022-09-09T08:31:37;23.60;1.00
38866;DHT22;62686;48.984;8.394;2022-09-09T08:34:07;22.60;95.00
38866;DHT22;62686;48.984;8.394;2022-09-09T08:36:38;21.60;1.00
38866;DHT22;62686;48.984;8.394;2022-09-09T08:39:08;20.60;1.00
38866;DHT22;62686;48.984;8.394;2022-09-09T08:44:57;19.50;99.90
38866;DHT22;62686;48.984;8.394;2022-09-09T08:47:35;19.30;99.90
38866;DHT22;62686;48.984;8.394;2022-09-09T08:50:14;19.50;1.00
38866;DHT22;62686;48.984;8.394;2022-09-09T08:52:51;20.10;1.00
38866;DHT22;62686;48.984;8.394;2022-09-09T08:55:27;21.50;99.90
38866;DHT22;62686;48.984;8.394;2022-09-09T08:57:59;21.90;99.90
38866;DHT22;62686;48.984;8.394;2022-09-09T09:00:36;21.50;99.90
38866;DHT22;62686;48.984;8.394;2022-09-09T09:03:16;21.30;99.90
38866;DHT22;62686;48.984;8.394;2022-09-09T09:05:51;21.10;99.90
38866;DHT22;62686;48.984;8.394;2022-09-09T09:08:28;20.60;99.90
38866;DHT22;62686;48.984;8.394;2022-09-09T09:10:59;20.30;1.00
38866;DHT22;62686;48.984;8.394;2022-09-09T09:13:34;20.20;94.20
38866;DHT22;62686;48.984;8.394;2022-09-09T09:16:13;20.40;1.00
38866;DHT22;62686;48.984;8.394;2022-09-09T09:18:46;20.40;1.00
38866;DHT22;62686;48.984;8.394;2022-09-09T09:21:19;20.50;1.00
38866;DHT22;62686;48.984;8.394;2022-09-09T09:23:53;20.60;1.00
38866;DHT22;62686;48.984;8.394;2022-09-09T09:26:25;21.50;1.00
38866;DHT22;62686;48.984;8.394;2022-09-09T09:28:57;22.70;1.00
38866;DHT22;62686;48.984;8.394;2022-09-09T09:31:27;23.20;1.00
38866;DHT22;62686;48.984;8.394;2022-09-09T09:33:56;23.00;99.90
38866;DHT22;62686;48.984;8.394;2022-09-09T09:36:34;23.80;23.10
38866;DHT22;62686;48.984;8.394;2022-09-09T09:39:03;24.10;1.00
38866;DHT22;62686;48.984;8.394;2022-09-09T09:41:52;23.70;99.90
38866;DHT22;62686;48.984;8.394;2022-09-09T09:44:26;23.20;99.90
38866;DHT22;62686;48.984;8.394;2022-09-09T09:47:06;23.00;74.30
38866;DHT22;62686;48.984;8.394;2022-09-09T09:49:36;22.90;1.00
38866;DHT22;62686;48.984;8.394;2022-09-09T09:52:05;22.70;99.90
38866;DHT22;62686;48.984;8.394;2022-09-09T09:54:37;22.80;1.00
38866;DHT22;62686;48.984;8.394;2022-09-09T09:57:10;22.40;99.90
38866;DHT22;62686;48.984;8.394;2022-09-09T09:59:39;22.30;1.00
38866;DHT22;62686;48.984;8.394;2022-09-09T10:02:15;22.40;1.00
38866;DHT22;62686;48.984;8.394;2022-09-09T10:04:45;22.50;99.90
38866;DHT22;62686;48.984;8.394;2022-09-09T10:07:18;22.90;99.90
38866;DHT22;62686;48.984;8.394;2022-09-09T10:09:50;22.90;99.90
38866;DHT22;62686;48.984;8.394;2022-09-09T10:12:29;22.70;99.90
38866;DHT22;62686;48.984;8.394;2022-09-09T10:15:02;22.60;99.90
38866;DHT22;62686;48.984;8.394;2022-09-09T10:17:37;22.90;1.00
38866;DHT22;62686;48.984;8.394;2022-09-09T10:20:20;23.10;99.90
38866;DHT22;62686;48.984;8.394;2022-09-09T10:22:52;23.20;1.00
38866;DHT22;62686;48.984;8.394;2022-09-09T10:25:36;23.30;99.90
38866;DHT22;62686;48.984;8.394;2022-09-09T10:28:26;23.30;99.20
38866;DHT22;62686;48.984;8.394;2022-09-09T10:31:07;23.30;1.00
38866;DHT22;62686;48.984;8.394;2022-09-09T10:33:44;23.40;99.90
38866;DHT22;62686;48.984;8.394;2022-09-09T10:36:20;23.70;8.70
38866;DHT22;62686;48.984;8.394;2022-09-09T10:38:53;24.00;99.90
38866;DHT22;62686;48.984;8.394;2022-09-09T10:41:38;23.80;1.00
38866;DHT22;62686;48.984;8.394;2022-09-09T10:44:21;23.80;1.00
38866;DHT22;62686;48.984;8.394;2022-09-09T10:47:14;24.00;99.90
38866;DHT22;62686;48.984;8.394;2022-09-09T10:49:59;24.20;1.00
38866;DHT22;62686;48.984;8.394;2022-09-09T10:52:40;24.30;99.90
38866;DHT22;62686;48.984;8.394;2022-09-09T10:55:17;23.70;30.60
38866;DHT22;62686;48.984;8.394;2022-09-09T10:57:47;23.70;99.90
38866;DHT22;62686;48.984;8.394;2022-09-09T11:00:20;23.90;99.90
38866;DHT22;62686;48.984;8.394;2022-09-09T11:02:51;23.90;99.90
38866;DHT22;62686;48.984;8.394;2022-09-09T11:05:24;23.80;99.90
38866;DHT22;62686;48.984;8.394;2022-09-09T11:07:59;24.30;99.90
38866;DHT22;62686;48.984;8.394;2022-09-09T11:10:34;24.00;99.90
38866;DHT22;62686;48.984;8.394;2022-09-09T11:13:10;24.70;99.90
38866;DHT22;62686;48.984;8.394;2022-09-09T11:15:42;25.80;1.00
38866;DHT22;62686;48.984;8.394;2022-09-09T11:18:15;26.50;1.00
38866;DHT22;62686;48.984;8.394;2022-09-09T11:20:47;27.10;1.00
38866;DHT22;62686;48.984;8.394;2022-09-09T11:23:22;26.80;1.00
38866;DHT22;62686;48.984;8.394;2022-09-09T11:25:56;27.60;1.00
38866;DHT22;62686;48.984;8.394;2022-09-09T11:28:37;26.90;1.00
38866;DHT22;62686;48.984;8.394;2022-09-09T11:34:10;24.60;1.00
38866;DHT22;62686;48.984;8.394;2022-09-09T11:37:04;23.60;99.90
38866;DHT22;62686;48.984;8.394;2022-09-09T11:40:01;23.40;99.90
38866;DHT22;62686;48.984;8.394;2022-09-09T11:42:34;23.20;99.90
38866;DHT22;62686;48.984;8.394;2022-09-09T11:45:20;24.20;99.90
38866;DHT22;62686;48.984;8.394;2022-09-09T11:47:54;24.80;32.90
38866;DHT22;62686;48.984;8.394;2022-09-09T11:50:33;24.70;90.70
38866;DHT22;62686;48.984;8.394;2022-09-09T11:53:20;24.00;99.90
38866;DHT22;62686;48.984;8.394;2022-09-09T11:56:06;23.70;99.90
38866;DHT22;62686;48.984;8.394;2022-09-09T11:58:41;23.40;99.90
38866;DHT22;62686;48.984;8.394;2022-09-09T12:01:15;24.80;99.90
38866;DHT22;62686;48.984;8.394;2022-09-09T12:03:45;27.00;1.00
38866;DHT22;62686;48.984;8.394;2022-09-09T12:06:17;28.50;1.00
38866;DHT22;62686;48.984;8.394;2022-09-09T12:08:50;30.10;1.00
38866;DHT22;62686;48.984;8.394;2022-09-09T12:11:28;30.90;1.00
38866;DHT22;62686;48.984;8.394;2022-09-09T12:13:58;31.20;1.00
38866;DHT22;62686;48.984;8.394;2022-09-09T12:16:32;31.50;1.00
38866;DHT22;62686;48.984;8.394;2022-09-09T12:19:12;30.30;1.00
38866;DHT22;62686;48.984;8.394;2022-09-09T12:21:46;28.10;1.00
38866;DHT22;62686;48.984;8.394;2022-09-09T12:24:19;26.50;1.00
38866;DHT22;62686;48.984;8.394;2022-09-09T12:26:56;25.60;1.00
38866;DHT22;62686;48.984;8.394;2022-09-09T12:29:34;25.00;1.00
38866;DHT22;62686;48.984;8.394;2022-09-09T12:32:08;24.50;1.00
38866;DHT22;62686;48.984;8.394;2022-09-09T12:34:40;24.80;1.00
38866;DHT22;62686;48.984;8.394;2022-09-09T12:37:17;24.60;1.00
38866;DHT22;62686;48.984;8.394;2022-09-09T12:39:52;24.30;1.00
38866;DHT22;62686;48.984;8.394;2022-09-09T12:42:24;25.00;1.00
38866;DHT22;62686;48.984;8.394;2022-09-09T12:44:55;26.20;1.00
38866;DHT22;62686;48.984;8.394;2022-09-09T12:47:29;27.30;1.00
38866;DHT22;62686;48.984;8.394;2022-09-09T12:49:58;28.20;1.00
38866;DHT22;62686;48.984;8.394;2022-09-09T12:52:30;27.10;1.00
38866;DHT22;62686;48.984;8.394;2022-09-09T12:55:00;25.60;1.00
38866;DHT22;62686;48.984;8.394;2022-09-09T12:57:35;24.50;57.90
38866;DHT22;62686;48.984;8.394;2022-09-09T13:00:07;23.60;99.90
38866;DHT22;62686;48.984;8.394;2022-09-09T13:02:47;23.90;1.00
38866;DHT22;62686;48.984;8.394;2022-09-09T13:05:20;25.10;99.90
38866;DHT22;62686;48.984;8.394;2022-09-09T13:07:48;25.10;99.30
38866;DHT22;62686;48.984;8.394;2022-09-09T13:10:24;24.60;79.10
38866;DHT22;62686;48.984;8.394;2022-09-09T13:12:57;23.60;99.90
38866;DHT22;62686;48.984;8.394;2022-09-09T13:15:28;23.10;1.00
38866;DHT22;62686;48.984;8.394;2022-09-09T13:18:00;22.70;99.90
38866;DHT22;62686;48.984;8.394;2022-09-09T13:20:29;22.40;99.90
38866;DHT22;62686;48.984;8.394;2022-09-09T13:22:57;22.00;99.90
38866;DHT22;62686;48.984;8.394;2022-09-09T13:25:27;21.80;1.00
38866;DHT22;62686;48.984;8.394;2022-09-09T13:28:03;22.30;55.80
38866;DHT22;62686;48.984;8.394;2022-09-09T13:30:36;22.90;99.90
38866;DHT22;62686;48.984;8.394;2022-09-09T13:33:22;22.90;8.70
38866;DHT22;62686;48.984;8.394;2022-09-09T13:35:54;24.30;99.90
38866;DHT22;62686;48.984;8.394;2022-09-09T13:38:28;25.00;99.90
38866;DHT22;62686;48.984;8.394;2022-09-09T13:40:58;24.60;99.90
38866;DHT22;62686;48.984;8.394;2022-09-09T13:43:31;24.40;99.90
38866;DHT22;62686;48.984;8.394;2022-09-09T13:46:03;23.60;1.00
38866;DHT22;62686;48.984;8.394;2022-09-09T13:48:33;22.90;1.00
38866;DHT22;62686;48.984;8.394;2022-09-09T13:51:05;22.10;1.00
38866;DHT22;62686;48.984;8.394;2022-09-09T13:53:42;21.30;1.00
38866;DHT22;62686;48.984;8.394;2022-09-09T13:56:14;20.80;1.00
38866;DHT22;62686;48.984;8.394;2022-09-09T13:58:47;21.50;1.00
38866;DHT22;62686;48.984;8.394;2022-09-09T14:01:15;23.20;1.00
38866;DHT22;62686;48.984;8.394;2022-09-09T14:04:02;24.50;89.00
38866;DHT22;62686;48.984;8.394;2022-09-09T14:06:59;24.50;1.00
38866;DHT22;62686;48.984;8.394;2022-09-09T14:09:55;23.70;99.90
38866;DHT22;62686;48.984;8.394;2022-09-09T14:12:51;22.90;66.50
38866;DHT22;62686;48.984;8.394;2022-09-09T14:15:50;22.10;99.90
38866;DHT22;62686;48.984;8.394;2022-09-09T14:18:20;21.40;1.00
38866;DHT22;62686;48.984;8.394;2022-09-09T14:20:50;20.30;1.00
38866;DHT22;62686;48.984;8.394;2022-09-09T14:23:39;19.70;99.90
38866;DHT22;62686;48.984;8.394;2022-09-09T14:26:27;19.30;99.90
38866;DHT22;62686;48.984;8.394;2022-09-09T14:28:58;19.10;1.00
38866;DHT22;62686;48.984;8.394;2022-09-09T14:31:31;19.10;1.00
38866;DHT22;62686;48.984;8.394;2022-09-09T14:34:04;19.20;99.90
38866;DHT22;62686;48.984;8.394;2022-09-09T14:36:32;19.20;99.90
38866;DHT22;62686;48.984;8.394;2022-09-09T14:39:02;19.10;1.00
38866;DHT22;62686;48.984;8.394;2022-09-09T14:41:31;18.90;1.00
38866;DHT22;62686;48.984;8.394;2022-09-09T14:43:59;18.60;1.00
38866;DHT22;62686;48.984;8.394;2022-09-09T14:46:28;18.40;40.70
38866;DHT22;62686;48.984;8.394;2022-09-09T14:49:00;18.20;99.90
38866;DHT22;62686;48.984;8.394;2022-09-09T14:51:29;18.00;99.90
38866;DHT22;62686;48.984;8.394;2022-09-09T14:53:58;17.80;99.90
38866;DHT22;62686;48.984;8.394;2022-09-09T14:56:30;17.40;1.00
38866;DHT22;62686;48.984;8.394;2022-09-09T14:59:01;17.20;1.00
38866;DHT22;62686;48.984;8.394;2022-09-09T15:01:31;17.10;1.00
38866;DHT22;62686;48.984;8.394;2022-09-09T15:04:04;17.10;1.00
38866;DHT22;62686;48.984;8.394;2022-09-09T15:06:34;17.00;1.00
38866;DHT22;62686;48.984;8.394;2022-09-09T15:09:03;17.10;1.00
38866;DHT22;62686;48.984;8.394;2022-09-09T15:11:34;17.20;1.00
38866;DHT22;62686;48.984;8.394;2022-09-09T15:14:05;17.40;1.00
38866;DHT22;62686;48.984;8.394;2022-09-09T15:16:34;17.70;1.00
38866;DHT22;62686;48.984;8.394;2022-09-09T15:19:04;18.00;1.00
38866;DHT22;62686;48.984;8.394;2022-09-09T15:21:34;18.20;1.00
38866;DHT22;62686;48.984;8.394;2022-09-09T15:24:03;18.60;1.00
38866;DHT22;62686;48.984;8.394;2022-09-09T15:26:34;19.10;1.00
38866;DHT22;62686;48.984;8.394;2022-09-09T15:29:05;19.70;1.00
38866;DHT22;62686;48.984;8.394;2022-09-09T15:31:34;20.20;99.90
38866;DHT22;62686;48.984;8.394;2022-09-09T15:34:07;20.30;99.90
38866;DHT22;62686;48.984;8.394;2022-09-09T15:36:37;20.50;99.90
38866;DHT22;62686;48.984;8.394;2022-09-09T15:39:07;20.60;99.90
38866;DHT22;62686;48.984;8.394;2022-09-09T15:41:40;20.60;1.00
38866;DHT22;62686;48.984;8.394;2022-09-09T15:44:09;20.50;1.00
38866;DHT22;62686;48.984;8.394;2022-09-09T15:46:40;20.20;1.00
38866;DHT22;62686;48.984;8.394;2022-09-09T15:49:12;20.10;99.90
38866;DHT22;62686;48.984;8.394;2022-09-09T15:51:42;19.80;99.90
38866;DHT22;62686;48.984;8.394;2022-09-09T15:54:12;19.60;99.90
38866;DHT22;62686;48.984;8.394;2022-09-09T15:56:41;19.40;1.00
38866;DHT22;62686;48.984;8.394;2022-09-09T15:59:09;19.30;1.00
38866;DHT22;62686;48.984;8.394;2022-09-09T16:01:38;19.10;1.00
38866;DHT22;62686;48.984;8.394;2022-09-09T16:04:07;19.00;99.90
38866;DHT22;62686;48.984;8.394;2022-09-09T16:06:37;18.70;1.00
38866;DHT22;62686;48.984;8.394;2022-09-09T16:09:07;18.50;1.00
38866;DHT22;62686;48.984;8.394;2022-09-09T16:11:37;18.30;1.00
38866;DHT22;62686;48.984;8.394;2022-09-09T16:14:06;18.00;1.00
38866;DHT22;62686;48.984;8.394;2022-09-09T16:16:35;17.80;1.00
38866;DHT22;62686;48.984;8.394;2022-09-09T16:19:05;17.50;1.00
38866;DHT22;62686;48.984;8.394;2022-09-09T16:21:35;17.30;99.90
38866;DHT22;62686;48.984;8.394;2022-09-09T16:24:07;17.10;99.90
38866;DHT22;62686;48.984;8.394;2022-09-09T16:26:38;16.90;99.90